Terminal Aerodrome Forecast
Issued by NWS Mt. Holly, NJ

Home | Current Version | Previous Version | Text Only | Print | Product List | Glossary On
Versions: 1 2 3 4 5 6 7 8 9 10 11 12 13 14 15 16 17 18 19 20 21 22 23 24 25 26 27 28 29 30 31 32 33 34 35 36 37 38 39 40
170
FTAK31 PANC 291748 AAA
TAFABE
TAF AMD
PABE 291748Z 2918/3018 13007KT P6SM SCT015 BKN060
      TEMPO 2918/2920 BKN015
     FM292100 15009KT P6SM SCT025 OVC040
     FM300600 12013KT P6SM SCT030 BKN060=

USA.gov is the U.S. government's official web portal to all federal, state and local government web resources and services.